Správy METAR z letísk v Slovenskej republike

LZTT - Poprad Tatry, Slovenská republika
Vzdialenosť od tejto stanice: Západne 25km
Aktualizované: 18.10.2018 19:30
 
Teplota vzduchu: 12°C
Vietor: ZSZ 7 km/h
Rosný bod: 6°C
Vlhkosť vzduchu: 67%
Tlak vzduchu: 1020 hPa
Stav počasia: Jasno
Oblačnosť: jasná obloha
Viditeľnosť: viac ako 10 km
2018/10/18 17:30 LZTT 181730Z 29004KT CAVOK 12/06 Q1020
LZKZ - Košice, Slovenská republika
Vzdialenosť od tejto stanice: VJV 62km
Aktualizované: 18.10.2018 19:30
 
Teplota vzduchu: 13°C
Vietor: SSZ 6 km/h
Rosný bod: 5°C
Vlhkosť vzduchu: 59%
Tlak vzduchu: 1018 hPa
Stav počasia: Jasno
Oblačnosť: jasná obloha
Viditeľnosť: viac ako 10 km
2018/10/18 17:30 LZKZ 181730Z 34003KT 280V010 CAVOK 13/05 Q1018
 
LZSL - Sliač, Slovenská republika
Vzdialenosť od tejto stanice: ZJZ 131km
Aktualizované: 18.10.2018 19:30
 
Teplota vzduchu: 13°C
Vietor: bezvetrie
Rosný bod: 8°C
Vlhkosť vzduchu: 72%
Tlak vzduchu: 1019 hPa
Stav počasia: Jasno
Oblačnosť: jasná obloha
Viditeľnosť: viac ako 10 km
2018/10/18 17:30 LZSL 181730Z 00000KT CAVOK 13/08 Q1019
LZZI - Žilina, Slovenská republika
Vzdialenosť od tejto stanice: Západne 161km
Aktualizované: 18.10.2018 19:30
 
Teplota vzduchu: 12°C
Vietor: premenlivý 4 km/h
Rosný bod: 8°C
Vlhkosť vzduchu: 77%
Tlak vzduchu: 1019 hPa
Stav počasia: Jasno
Oblačnosť: jasná obloha
Viditeľnosť: viac ako 10 km
2018/10/18 17:30 LZZI 181730Z VRB02KT CAVOK 12/08 Q1019
 
LZIB - Bratislava, Slovernská republika
Vzdialenosť od tejto stanice: ZJZ 274km
Aktualizované: 18.10.2018 19:30
 
Teplota vzduchu: 15°C
Vietor: SSZ 4 km/h
Rosný bod: 8°C
Vlhkosť vzduchu: 63%
Tlak vzduchu: 1018 hPa
Stav počasia: Jasno
Oblačnosť: jasná obloha
Viditeľnosť: viac ako 10 km
2018/10/18 17:30 LZIB 181730Z 34002KT CAVOK 15/08 Q1018 NOSIG
LZPP - Piešťany, Slovenská republika
Vzdialenosť od tejto stanice: ZJZ 237km
Aktualizované: 18.10.2018 19:30
 
Teplota vzduchu: 13°C
Vietor: premenlivý 4 km/h
Rosný bod: 10°C
Vlhkosť vzduchu: 82%
Tlak vzduchu: 1019 hPa
Stav počasia: Jasno
Oblačnosť: jasná obloha
Viditeľnosť: viac ako 10 km
2018/10/18 17:30 LZPP 181730Z VRB02KT CAVOK 13/10 Q1019
 
LZNI - Nitra, Slovenská republika
Vzdialenosť od tejto stanice: ZJZ 207km
Aktualizované: 31.12.2012 21:00
Údaje nie sú aktuálne
 
Teplota vzduchu: 1°C
Vietor: premenlivý 0 km/h
Rosný bod: -2°C
Vlhkosť vzduchu: 81%
Tlak vzduchu: 1022 hPa
Stav počasia: Jasno
Oblačnosť: jasná obloha
Viditeľnosť: viac ako 10 km
2012/12/31 20:00 LZNI 312000Z /////KT CAVOK 01/M02 Q1022
LZPE - Prievidza, Slovenská republika
Vzdialenosť od tejto stanice: ZJZ 148km
Aktualizované: 31.12.2012 21:00
Údaje nie sú aktuálne
 
Teplota vzduchu: -3°C
Vietor: premenlivý 0 km/h
Rosný bod: -4°C
Vlhkosť vzduchu: 93%
Tlak vzduchu: 1022 hPa
Stav počasia: Jasno
Oblačnosť: jasná obloha
Viditeľnosť: viac ako 10 km
2012/12/31 20:00 LZPE 312000Z /////KT CAVOK M03/M04 Q1022
 
LZKC - Kamenica nad Cirochou, Slovenská republika
Vzdialenosť od tejto stanice: VJV 90km
Aktualizované: 01.01.2013 13:00
Údaje nie sú aktuálne
 
Teplota vzduchu: 4°C
Chlad vetra: 1°C
Vietor: JJZ 11 km/h
Rosný bod: -7°C
Vlhkosť vzduchu: 45%
Tlak vzduchu: 1019 hPa
Oblačnosť: skoro jasno
Viditeľnosť: 10 km
Detaily oblačnosti: skoro jasno 1615 m
2013/01/01 12:00 LZKC 011200Z 21006KT 150V290 9999 FEW053 04/M07 Q1019
LZLU - Lučenec, Slovenská republika
Vzdialenosť od tejto stanice: ZJZ 123km
Aktualizované: 14.03.2013 12:10
Údaje nie sú aktuálne
 
Teplota vzduchu: 2°C
Chlad vetra: -2°C
Vietor: V 17 km/h
Rosný bod: 1°C
Vlhkosť vzduchu: 93%
Tlak vzduchu: 994 hPa
2013/03/14 11:10 LZLU 141110Z AUTO 08009KT //// ////// 02/01 Q0994

Metar display script od Saratoga-Weather.org
upravil a preložil Miloš Jiřík Konečná úprava a preklad do Slovenčiny Teodor Zibura